sensor_id;sensor_type;location;lat;lon;timestamp;P1;durP1;ratioP1;P2;durP2;ratioP2
25213;SDS011;13160;51.834;4.706;2023-05-01T00:00:04;9.93;;;4.80;;
25213;SDS011;13160;51.834;4.706;2023-05-01T00:02:35;11.25;;;5.10;;
25213;SDS011;13160;51.834;4.706;2023-05-01T00:05:04;7.85;;;5.63;;
25213;SDS011;13160;51.834;4.706;2023-05-01T00:07:34;8.88;;;5.40;;
25213;SDS011;13160;51.834;4.706;2023-05-01T00:10:03;9.63;;;5.70;;
25213;SDS011;13160;51.834;4.706;2023-05-01T00:12:32;8.40;;;5.60;;
25213;SDS011;13160;51.834;4.706;2023-05-01T00:15:01;11.13;;;5.75;;
25213;SDS011;13160;51.834;4.706;2023-05-01T00:17:31;11.00;;;5.75;;
25213;SDS011;13160;51.834;4.706;2023-05-01T00:19:59;9.43;;;5.60;;
25213;SDS011;13160;51.834;4.706;2023-05-01T00:22:27;9.88;;;5.13;;
25213;SDS011;13160;51.834;4.706;2023-05-01T00:24:56;7.18;;;5.20;;
25213;SDS011;13160;51.834;4.706;2023-05-01T00:27:25;8.70;;;5.40;;
25213;SDS011;13160;51.834;4.706;2023-05-01T00:29:53;10.75;;;5.38;;
25213;SDS011;13160;51.834;4.706;2023-05-01T00:32:21;10.90;;;6.22;;
25213;SDS011;13160;51.834;4.706;2023-05-01T00:34:51;8.82;;;5.60;;
25213;SDS011;13160;51.834;4.706;2023-05-01T00:37:21;11.68;;;6.00;;
25213;SDS011;13160;51.834;4.706;2023-05-01T00:39:50;11.70;;;5.80;;
25213;SDS011;13160;51.834;4.706;2023-05-01T00:42:18;9.30;;;5.68;;
25213;SDS011;13160;51.834;4.706;2023-05-01T00:44:47;12.90;;;6.43;;
25213;SDS011;13160;51.834;4.706;2023-05-01T00:47:15;11.52;;;6.00;;
25213;SDS011;13160;51.834;4.706;2023-05-01T00:49:44;9.93;;;5.88;;
25213;SDS011;13160;51.834;4.706;2023-05-01T00:52:15;9.52;;;5.85;;
25213;SDS011;13160;51.834;4.706;2023-05-01T00:54:43;8.98;;;5.97;;
25213;SDS011;13160;51.834;4.706;2023-05-01T00:57:17;9.13;;;6.68;;
25213;SDS011;13160;51.834;4.706;2023-05-01T00:59:46;12.77;;;6.22;;
25213;SDS011;13160;51.834;4.706;2023-05-01T01:02:15;10.50;;;6.57;;
25213;SDS011;13160;51.834;4.706;2023-05-01T01:04:44;10.48;;;6.95;;
25213;SDS011;13160;51.834;4.706;2023-05-01T01:07:17;12.35;;;6.80;;
25213;SDS011;13160;51.834;4.706;2023-05-01T01:09:54;10.93;;;6.68;;
25213;SDS011;13160;51.834;4.706;2023-05-01T01:12:36;11.68;;;6.72;;
25213;SDS011;13160;51.834;4.706;2023-05-01T01:15:17;11.05;;;6.97;;
25213;SDS011;13160;51.834;4.706;2023-05-01T01:17:58;10.10;;;6.55;;
25213;SDS011;13160;51.834;4.706;2023-05-01T01:20:36;9.75;;;6.50;;
25213;SDS011;13160;51.834;4.706;2023-05-01T01:23:19;11.35;;;6.80;;
25213;SDS011;13160;51.834;4.706;2023-05-01T01:26:06;9.88;;;7.05;;
25213;SDS011;13160;51.834;4.706;2023-05-01T01:31:52;12.20;;;6.63;;
25213;SDS011;13160;51.834;4.706;2023-05-01T01:34:33;10.07;;;6.35;;
25213;SDS011;13160;51.834;4.706;2023-05-01T01:37:08;9.20;;;6.65;;
25213;SDS011;13160;51.834;4.706;2023-05-01T01:39:42;11.73;;;6.65;;
25213;SDS011;13160;51.834;4.706;2023-05-01T01:42:18;10.30;;;6.68;;
25213;SDS011;13160;51.834;4.706;2023-05-01T01:44:53;11.23;;;6.75;;
25213;SDS011;13160;51.834;4.706;2023-05-01T01:47:23;8.73;;;6.40;;
25213;SDS011;13160;51.834;4.706;2023-05-01T01:49:59;9.32;;;6.35;;
25213;SDS011;13160;51.834;4.706;2023-05-01T01:52:31;12.80;;;7.25;;
25213;SDS011;13160;51.834;4.706;2023-05-01T01:55:03;11.25;;;6.35;;
25213;SDS011;13160;51.834;4.706;2023-05-01T01:57:36;8.40;;;6.68;;
25213;SDS011;13160;51.834;4.706;2023-05-01T02:00:08;10.35;;;7.03;;
25213;SDS011;13160;51.834;4.706;2023-05-01T02:02:39;9.82;;;6.32;;
25213;SDS011;13160;51.834;4.706;2023-05-01T02:05:12;10.43;;;6.22;;
25213;SDS011;13160;51.834;4.706;2023-05-01T02:07:44;10.30;;;6.70;;
25213;SDS011;13160;51.834;4.706;2023-05-01T02:10:16;9.73;;;6.32;;
25213;SDS011;13160;51.834;4.706;2023-05-01T02:12:47;10.25;;;6.95;;
25213;SDS011;13160;51.834;4.706;2023-05-01T02:15:18;11.95;;;7.18;;
25213;SDS011;13160;51.834;4.706;2023-05-01T02:17:47;11.23;;;6.60;;
25213;SDS011;13160;51.834;4.706;2023-05-01T02:20:20;10.88;;;6.65;;
25213;SDS011;13160;51.834;4.706;2023-05-01T02:22:49;12.13;;;7.28;;
25213;SDS011;13160;51.834;4.706;2023-05-01T02:25:19;10.00;;;6.65;;
25213;SDS011;13160;51.834;4.706;2023-05-01T02:27:49;10.13;;;7.50;;
25213;SDS011;13160;51.834;4.706;2023-05-01T02:30:26;12.05;;;6.55;;
25213;SDS011;13160;51.834;4.706;2023-05-01T02:32:55;10.43;;;6.43;;
25213;SDS011;13160;51.834;4.706;2023-05-01T02:35:25;8.10;;;5.93;;
25213;SDS011;13160;51.834;4.706;2023-05-01T02:37:53;10.80;;;7.38;;
25213;SDS011;13160;51.834;4.706;2023-05-01T02:40:21;10.60;;;6.75;;
25213;SDS011;13160;51.834;4.706;2023-05-01T02:42:50;11.32;;;7.00;;
25213;SDS011;13160;51.834;4.706;2023-05-01T02:45:21;11.25;;;6.57;;
25213;SDS011;13160;51.834;4.706;2023-05-01T02:47:53;12.10;;;7.07;;
25213;SDS011;13160;51.834;4.706;2023-05-01T02:50:26;15.18;;;7.00;;
25213;SDS011;13160;51.834;4.706;2023-05-01T02:52:56;9.75;;;6.70;;
25213;SDS011;13160;51.834;4.706;2023-05-01T02:55:26;11.63;;;6.70;;
25213;SDS011;13160;51.834;4.706;2023-05-01T02:57:56;9.38;;;6.55;;
25213;SDS011;13160;51.834;4.706;2023-05-01T03:00:25;10.63;;;6.68;;
25213;SDS011;13160;51.834;4.706;2023-05-01T03:02:55;10.18;;;6.82;;
25213;SDS011;13160;51.834;4.706;2023-05-01T03:05:23;9.43;;;6.35;;
25213;SDS011;13160;51.834;4.706;2023-05-01T03:07:53;9.85;;;6.65;;
25213;SDS011;13160;51.834;4.706;2023-05-01T03:10:21;11.25;;;6.93;;
25213;SDS011;13160;51.834;4.706;2023-05-01T03:12:50;11.82;;;6.80;;
25213;SDS011;13160;51.834;4.706;2023-05-01T03:15:18;12.15;;;7.13;;
25213;SDS011;13160;51.834;4.706;2023-05-01T03:17:46;9.82;;;6.93;;
25213;SDS011;13160;51.834;4.706;2023-05-01T03:20:15;9.15;;;6.85;;
25213;SDS011;13160;51.834;4.706;2023-05-01T03:22:43;10.63;;;6.82;;
25213;SDS011;13160;51.834;4.706;2023-05-01T03:25:13;11.02;;;6.95;;
25213;SDS011;13160;51.834;4.706;2023-05-01T03:27:41;9.10;;;7.20;;
25213;SDS011;13160;51.834;4.706;2023-05-01T03:30:10;10.18;;;7.68;;
25213;SDS011;13160;51.834;4.706;2023-05-01T03:32:39;12.38;;;7.95;;
25213;SDS011;13160;51.834;4.706;2023-05-01T03:35:08;11.07;;;7.55;;
25213;SDS011;13160;51.834;4.706;2023-05-01T03:37:36;13.35;;;7.78;;
25213;SDS011;13160;51.834;4.706;2023-05-01T03:40:05;13.18;;;7.65;;
25213;SDS011;13160;51.834;4.706;2023-05-01T03:42:37;12.70;;;7.25;;
25213;SDS011;13160;51.834;4.706;2023-05-01T03:45:06;15.43;;;8.00;;
25213;SDS011;13160;51.834;4.706;2023-05-01T03:47:35;12.18;;;7.07;;
25213;SDS011;13160;51.834;4.706;2023-05-01T03:50:04;12.38;;;7.68;;
25213;SDS011;13160;51.834;4.706;2023-05-01T03:52:34;12.05;;;6.97;;
25213;SDS011;13160;51.834;4.706;2023-05-01T03:55:04;11.25;;;6.70;;
25213;SDS011;13160;51.834;4.706;2023-05-01T03:57:34;15.73;;;6.97;;
25213;SDS011;13160;51.834;4.706;2023-05-01T04:00:04;10.20;;;7.03;;
25213;SDS011;13160;51.834;4.706;2023-05-01T04:02:34;9.07;;;6.28;;
25213;SDS011;13160;51.834;4.706;2023-05-01T04:05:03;14.02;;;6.45;;
25213;SDS011;13160;51.834;4.706;2023-05-01T04:07:32;10.52;;;6.30;;
25213;SDS011;13160;51.834;4.706;2023-05-01T04:10:01;12.18;;;6.25;;
25213;SDS011;13160;51.834;4.706;2023-05-01T04:12:32;10.05;;;6.18;;
25213;SDS011;13160;51.834;4.706;2023-05-01T04:15:02;10.88;;;6.40;;
25213;SDS011;13160;51.834;4.706;2023-05-01T04:17:31;10.68;;;6.38;;
25213;SDS011;13160;51.834;4.706;2023-05-01T04:20:01;12.95;;;6.53;;
25213;SDS011;13160;51.834;4.706;2023-05-01T04:22:31;11.70;;;5.90;;
25213;SDS011;13160;51.834;4.706;2023-05-01T04:25:00;10.57;;;6.55;;
25213;SDS011;13160;51.834;4.706;2023-05-01T04:27:28;10.93;;;6.57;;
25213;SDS011;13160;51.834;4.706;2023-05-01T04:29:56;10.20;;;6.65;;
25213;SDS011;13160;51.834;4.706;2023-05-01T04:32:27;13.10;;;6.60;;
25213;SDS011;13160;51.834;4.706;2023-05-01T04:34:55;10.00;;;7.13;;
25213;SDS011;13160;51.834;4.706;2023-05-01T04:37:23;13.50;;;6.47;;
25213;SDS011;13160;51.834;4.706;2023-05-01T04:39:52;12.55;;;6.93;;
25213;SDS011;13160;51.834;4.706;2023-05-01T04:42:21;11.02;;;7.00;;
25213;SDS011;13160;51.834;4.706;2023-05-01T04:44:49;10.32;;;7.10;;
25213;SDS011;13160;51.834;4.706;2023-05-01T04:47:18;8.57;;;6.55;;
25213;SDS011;13160;51.834;4.706;2023-05-01T04:49:48;12.30;;;6.28;;
25213;SDS011;13160;51.834;4.706;2023-05-01T04:52:16;15.63;;;7.20;;
25213;SDS011;13160;51.834;4.706;2023-05-01T04:54:44;13.18;;;6.80;;
25213;SDS011;13160;51.834;4.706;2023-05-01T04:57:13;12.65;;;7.35;;
25213;SDS011;13160;51.834;4.706;2023-05-01T04:59:41;10.70;;;6.72;;
25213;SDS011;13160;51.834;4.706;2023-05-01T05:02:09;11.70;;;6.75;;
25213;SDS011;13160;51.834;4.706;2023-05-01T05:04:38;10.50;;;6.90;;
25213;SDS011;13160;51.834;4.706;2023-05-01T05:07:07;12.27;;;6.80;;
25213;SDS011;13160;51.834;4.706;2023-05-01T05:09:36;15.05;;;7.80;;
25213;SDS011;13160;51.834;4.706;2023-05-01T05:12:04;11.52;;;6.60;;
25213;SDS011;13160;51.834;4.706;2023-05-01T05:14:32;13.30;;;6.57;;
25213;SDS011;13160;51.834;4.706;2023-05-01T05:17:01;12.27;;;6.47;;
25213;SDS011;13160;51.834;4.706;2023-05-01T05:19:29;10.02;;;6.20;;
25213;SDS011;13160;51.834;4.706;2023-05-01T05:21:58;13.15;;;6.20;;
25213;SDS011;13160;51.834;4.706;2023-05-01T05:24:30;13.30;;;6.70;;
25213;SDS011;13160;51.834;4.706;2023-05-01T05:26:59;13.60;;;6.07;;
25213;SDS011;13160;51.834;4.706;2023-05-01T05:29:27;15.02;;;6.80;;
25213;SDS011;13160;51.834;4.706;2023-05-01T05:31:56;13.43;;;6.00;;
25213;SDS011;13160;51.834;4.706;2023-05-01T05:34:25;10.88;;;6.32;;
25213;SDS011;13160;51.834;4.706;2023-05-01T05:36:53;12.57;;;6.25;;
25213;SDS011;13160;51.834;4.706;2023-05-01T05:39:21;15.77;;;6.63;;
25213;SDS011;13160;51.834;4.706;2023-05-01T05:41:51;13.07;;;6.80;;
25213;SDS011;13160;51.834;4.706;2023-05-01T05:44:19;10.43;;;6.50;;
25213;SDS011;13160;51.834;4.706;2023-05-01T05:46:47;10.98;;;6.15;;
25213;SDS011;13160;51.834;4.706;2023-05-01T05:49:16;15.05;;;7.53;;
25213;SDS011;13160;51.834;4.706;2023-05-01T05:51:44;12.77;;;6.72;;
25213;SDS011;13160;51.834;4.706;2023-05-01T05:54:15;16.65;;;7.18;;
25213;SDS011;13160;51.834;4.706;2023-05-01T05:56:43;10.65;;;6.55;;
25213;SDS011;13160;51.834;4.706;2023-05-01T05:59:15;11.55;;;6.57;;
25213;SDS011;13160;51.834;4.706;2023-05-01T06:01:43;13.95;;;6.85;;
25213;SDS011;13160;51.834;4.706;2023-05-01T06:04:15;11.98;;;6.70;;
25213;SDS011;13160;51.834;4.706;2023-05-01T06:06:43;12.80;;;6.47;;
25213;SDS011;13160;51.834;4.706;2023-05-01T06:09:15;9.45;;;6.10;;
25213;SDS011;13160;51.834;4.706;2023-05-01T06:11:48;12.02;;;6.43;;
25213;SDS011;13160;51.834;4.706;2023-05-01T06:14:17;10.10;;;6.55;;
25213;SDS011;13160;51.834;4.706;2023-05-01T06:16:48;14.13;;;6.53;;
25213;SDS011;13160;51.834;4.706;2023-05-01T06:19:16;10.82;;;5.50;;
25213;SDS011;13160;51.834;4.706;2023-05-01T06:21:45;11.95;;;6.47;;
25213;SDS011;13160;51.834;4.706;2023-05-01T06:24:16;11.93;;;5.75;;
25213;SDS011;13160;51.834;4.706;2023-05-01T06:26:46;9.52;;;6.25;;
25213;SDS011;13160;51.834;4.706;2023-05-01T06:29:15;11.25;;;5.97;;
25213;SDS011;13160;51.834;4.706;2023-05-01T06:31:49;16.60;;;6.70;;
25213;SDS011;13160;51.834;4.706;2023-05-01T06:34:17;12.98;;;5.70;;
25213;SDS011;13160;51.834;4.706;2023-05-01T06:36:46;15.52;;;7.15;;
25213;SDS011;13160;51.834;4.706;2023-05-01T06:39:14;9.25;;;5.78;;
25213;SDS011;13160;51.834;4.706;2023-05-01T06:41:44;10.77;;;6.18;;
25213;SDS011;13160;51.834;4.706;2023-05-01T06:44:13;16.73;;;6.50;;
25213;SDS011;13160;51.834;4.706;2023-05-01T06:46:41;14.90;;;6.70;;
25213;SDS011;13160;51.834;4.706;2023-05-01T06:49:17;16.17;;;7.38;;
25213;SDS011;13160;51.834;4.706;2023-05-01T06:51:45;13.82;;;6.78;;
25213;SDS011;13160;51.834;4.706;2023-05-01T06:54:14;13.85;;;6.82;;
25213;SDS011;13160;51.834;4.706;2023-05-01T06:56:42;15.05;;;6.68;;
25213;SDS011;13160;51.834;4.706;2023-05-01T06:59:10;12.20;;;6.70;;
25213;SDS011;13160;51.834;4.706;2023-05-01T07:01:48;8.88;;;6.22;;
25213;SDS011;13160;51.834;4.706;2023-05-01T07:04:18;10.05;;;6.30;;
25213;SDS011;13160;51.834;4.706;2023-05-01T07:06:47;10.60;;;6.95;;
25213;SDS011;13160;51.834;4.706;2023-05-01T07:09:15;12.85;;;7.00;;
25213;SDS011;13160;51.834;4.706;2023-05-01T07:11:44;12.07;;;7.60;;
25213;SDS011;13160;51.834;4.706;2023-05-01T07:14:15;12.50;;;6.75;;
25213;SDS011;13160;51.834;4.706;2023-05-01T07:16:44;11.98;;;6.95;;
25213;SDS011;13160;51.834;4.706;2023-05-01T07:19:12;10.85;;;6.95;;
25213;SDS011;13160;51.834;4.706;2023-05-01T07:21:42;16.25;;;6.97;;
25213;SDS011;13160;51.834;4.706;2023-05-01T07:24:12;11.38;;;7.00;;
25213;SDS011;13160;51.834;4.706;2023-05-01T07:26:42;16.20;;;7.32;;
25213;SDS011;13160;51.834;4.706;2023-05-01T07:29:13;11.13;;;6.85;;
25213;SDS011;13160;51.834;4.706;2023-05-01T07:31:42;14.10;;;6.90;;
25213;SDS011;13160;51.834;4.706;2023-05-01T07:34:11;9.45;;;6.75;;
25213;SDS011;13160;51.834;4.706;2023-05-01T07:36:43;11.98;;;6.63;;
25213;SDS011;13160;51.834;4.706;2023-05-01T07:39:14;12.50;;;6.63;;
25213;SDS011;13160;51.834;4.706;2023-05-01T07:41:43;12.80;;;7.43;;
25213;SDS011;13160;51.834;4.706;2023-05-01T07:44:12;10.85;;;7.50;;
25213;SDS011;13160;51.834;4.706;2023-05-01T07:46:41;10.93;;;7.22;;
25213;SDS011;13160;51.834;4.706;2023-05-01T07:49:10;11.70;;;7.10;;
25213;SDS011;13160;51.834;4.706;2023-05-01T07:51:38;14.02;;;6.93;;
25213;SDS011;13160;51.834;4.706;2023-05-01T07:54:09;12.40;;;7.20;;
25213;SDS011;13160;51.834;4.706;2023-05-01T07:56:40;12.98;;;6.78;;
25213;SDS011;13160;51.834;4.706;2023-05-01T07:59:08;12.65;;;7.65;;
25213;SDS011;13160;51.834;4.706;2023-05-01T08:01:37;12.50;;;7.47;;
25213;SDS011;13160;51.834;4.706;2023-05-01T08:04:06;13.48;;;6.70;;
25213;SDS011;13160;51.834;4.706;2023-05-01T08:06:35;12.48;;;7.65;;
25213;SDS011;13160;51.834;4.706;2023-05-01T08:09:03;14.07;;;7.13;;
25213;SDS011;13160;51.834;4.706;2023-05-01T08:11:33;13.57;;;7.25;;
25213;SDS011;13160;51.834;4.706;2023-05-01T08:14:02;13.57;;;7.32;;
25213;SDS011;13160;51.834;4.706;2023-05-01T08:16:30;14.80;;;7.88;;
25213;SDS011;13160;51.834;4.706;2023-05-01T08:19:00;12.57;;;7.97;;
25213;SDS011;13160;51.834;4.706;2023-05-01T08:21:29;11.75;;;7.55;;
25213;SDS011;13160;51.834;4.706;2023-05-01T08:23:57;16.30;;;7.68;;
25213;SDS011;13160;51.834;4.706;2023-05-01T08:26:26;15.05;;;7.60;;
25213;SDS011;13160;51.834;4.706;2023-05-01T08:28:56;15.77;;;7.93;;
25213;SDS011;13160;51.834;4.706;2023-05-01T08:31:24;13.38;;;8.27;;
25213;SDS011;13160;51.834;4.706;2023-05-01T08:33:52;14.88;;;7.40;;
25213;SDS011;13160;51.834;4.706;2023-05-01T08:36:21;12.25;;;8.05;;
25213;SDS011;13160;51.834;4.706;2023-05-01T08:38:49;15.55;;;8.85;;
25213;SDS011;13160;51.834;4.706;2023-05-01T08:41:19;12.00;;;8.52;;
25213;SDS011;13160;51.834;4.706;2023-05-01T08:43:49;15.25;;;8.45;;
25213;SDS011;13160;51.834;4.706;2023-05-01T08:46:20;14.27;;;8.77;;
25213;SDS011;13160;51.834;4.706;2023-05-01T08:48:53;16.17;;;8.35;;
25213;SDS011;13160;51.834;4.706;2023-05-01T08:51:26;14.55;;;8.32;;
25213;SDS011;13160;51.834;4.706;2023-05-01T08:53:56;17.40;;;8.48;;
25213;SDS011;13160;51.834;4.706;2023-05-01T08:56:26;15.38;;;8.55;;
25213;SDS011;13160;51.834;4.706;2023-05-01T08:58:57;19.38;;;9.18;;
25213;SDS011;13160;51.834;4.706;2023-05-01T09:01:30;21.80;;;9.45;;
25213;SDS011;13160;51.834;4.706;2023-05-01T09:04:02;18.10;;;8.70;;
25213;SDS011;13160;51.834;4.706;2023-05-01T09:06:31;17.75;;;9.07;;
25213;SDS011;13160;51.834;4.706;2023-05-01T09:09:06;21.73;;;9.38;;
25213;SDS011;13160;51.834;4.706;2023-05-01T09:11:34;15.70;;;9.20;;
25213;SDS011;13160;51.834;4.706;2023-05-01T09:14:03;16.42;;;9.65;;
25213;SDS011;13160;51.834;4.706;2023-05-01T09:16:35;17.70;;;9.15;;
25213;SDS011;13160;51.834;4.706;2023-05-01T09:19:03;16.27;;;9.38;;
25213;SDS011;13160;51.834;4.706;2023-05-01T09:21:32;18.58;;;9.55;;
25213;SDS011;13160;51.834;4.706;2023-05-01T09:24:00;18.67;;;8.88;;
25213;SDS011;13160;51.834;4.706;2023-05-01T09:26:32;20.77;;;9.45;;
25213;SDS011;13160;51.834;4.706;2023-05-01T09:29:03;14.60;;;8.68;;
25213;SDS011;13160;51.834;4.706;2023-05-01T09:31:32;16.42;;;9.50;;
25213;SDS011;13160;51.834;4.706;2023-05-01T09:34:02;16.38;;;9.02;;
25213;SDS011;13160;51.834;4.706;2023-05-01T09:36:32;16.52;;;8.95;;
25213;SDS011;13160;51.834;4.706;2023-05-01T09:39:02;17.17;;;9.00;;
25213;SDS011;13160;51.834;4.706;2023-05-01T09:41:31;15.50;;;8.95;;
25213;SDS011;13160;51.834;4.706;2023-05-01T09:43:59;12.77;;;8.65;;
25213;SDS011;13160;51.834;4.706;2023-05-01T09:46:27;16.15;;;9.43;;
25213;SDS011;13160;51.834;4.706;2023-05-01T09:49:10;18.58;;;8.98;;
25213;SDS011;13160;51.834;4.706;2023-05-01T09:51:39;18.55;;;9.55;;
25213;SDS011;13160;51.834;4.706;2023-05-01T09:54:16;18.60;;;10.82;;
25213;SDS011;13160;51.834;4.706;2023-05-01T09:56:46;18.58;;;10.60;;
25213;SDS011;13160;51.834;4.706;2023-05-01T09:59:15;19.38;;;9.85;;
25213;SDS011;13160;51.834;4.706;2023-05-01T10:01:48;20.05;;;11.13;;
25213;SDS011;13160;51.834;4.706;2023-05-01T10:04:19;15.68;;;9.02;;
25213;SDS011;13160;51.834;4.706;2023-05-01T10:06:57;16.27;;;8.73;;
25213;SDS011;13160;51.834;4.706;2023-05-01T10:09:38;15.98;;;8.57;;
25213;SDS011;13160;51.834;4.706;2023-05-01T10:12:07;19.52;;;8.65;;
25213;SDS011;13160;51.834;4.706;2023-05-01T10:14:48;14.98;;;8.20;;
25213;SDS011;13160;51.834;4.706;2023-05-01T10:17:18;18.35;;;8.27;;
25213;SDS011;13160;51.834;4.706;2023-05-01T10:19:49;12.43;;;7.85;;
25213;SDS011;13160;51.834;4.706;2023-05-01T10:22:18;14.85;;;7.75;;
25213;SDS011;13160;51.834;4.706;2023-05-01T10:24:47;14.63;;;7.50;;
25213;SDS011;13160;51.834;4.706;2023-05-01T10:27:15;14.70;;;7.63;;
25213;SDS011;13160;51.834;4.706;2023-05-01T10:29:44;16.42;;;7.82;;
25213;SDS011;13160;51.834;4.706;2023-05-01T10:32:14;14.90;;;7.75;;
25213;SDS011;13160;51.834;4.706;2023-05-01T10:34:48;15.00;;;8.35;;
25213;SDS011;13160;51.834;4.706;2023-05-01T10:37:23;15.95;;;8.30;;
25213;SDS011;13160;51.834;4.706;2023-05-01T10:39:57;18.98;;;8.75;;
25213;SDS011;13160;51.834;4.706;2023-05-01T10:42:26;12.23;;;8.20;;
25213;SDS011;13160;51.834;4.706;2023-05-01T10:44:54;13.73;;;8.15;;
25213;SDS011;13160;51.834;4.706;2023-05-01T10:47:56;14.35;;;7.95;;
25213;SDS011;13160;51.834;4.706;2023-05-01T10:50:26;13.57;;;7.88;;
25213;SDS011;13160;51.834;4.706;2023-05-01T10:55:48;13.82;;;8.27;;
25213;SDS011;13160;51.834;4.706;2023-05-01T11:01:28;13.88;;;8.88;;
25213;SDS011;13160;51.834;4.706;2023-05-01T11:03:59;16.85;;;8.27;;
25213;SDS011;13160;51.834;4.706;2023-05-01T11:06:32;13.77;;;8.65;;
25213;SDS011;13160;51.834;4.706;2023-05-01T11:09:02;12.95;;;8.82;;
25213;SDS011;13160;51.834;4.706;2023-05-01T11:12:03;13.38;;;8.10;;
25213;SDS011;13160;51.834;4.706;2023-05-01T11:17:46;16.58;;;8.95;;
25213;SDS011;13160;51.834;4.706;2023-05-01T11:23:22;16.73;;;9.32;;
25213;SDS011;13160;51.834;4.706;2023-05-01T11:26:03;13.05;;;8.20;;
25213;SDS011;13160;51.834;4.706;2023-05-01T11:28:31;15.73;;;9.00;;
25213;SDS011;13160;51.834;4.706;2023-05-01T11:31:01;14.88;;;9.80;;
25213;SDS011;13160;51.834;4.706;2023-05-01T11:33:29;14.82;;;10.07;;
25213;SDS011;13160;51.834;4.706;2023-05-01T11:35:58;15.38;;;10.20;;
25213;SDS011;13160;51.834;4.706;2023-05-01T11:38:29;16.35;;;9.93;;
25213;SDS011;13160;51.834;4.706;2023-05-01T11:40:58;18.83;;;9.75;;
25213;SDS011;13160;51.834;4.706;2023-05-01T11:43:30;13.77;;;10.18;;
25213;SDS011;13160;51.834;4.706;2023-05-01T11:45:58;19.40;;;11.43;;
25213;SDS011;13160;51.834;4.706;2023-05-01T11:48:30;16.33;;;10.77;;
25213;SDS011;13160;51.834;4.706;2023-05-01T11:50:58;17.15;;;10.80;;
25213;SDS011;13160;51.834;4.706;2023-05-01T11:53:29;14.45;;;10.40;;
25213;SDS011;13160;51.834;4.706;2023-05-01T11:55:57;14.13;;;10.13;;
25213;SDS011;13160;51.834;4.706;2023-05-01T11:58:38;17.70;;;11.20;;
25213;SDS011;13160;51.834;4.706;2023-05-01T12:01:07;17.15;;;11.27;;
25213;SDS011;13160;51.834;4.706;2023-05-01T12:03:41;15.40;;;10.60;;
25213;SDS011;13160;51.834;4.706;2023-05-01T12:06:11;15.05;;;10.23;;
25213;SDS011;13160;51.834;4.706;2023-05-01T12:08:42;17.15;;;10.73;;
25213;SDS011;13160;51.834;4.706;2023-05-01T12:11:16;15.50;;;10.00;;
25213;SDS011;13160;51.834;4.706;2023-05-01T12:13:45;16.27;;;11.63;;
25213;SDS011;13160;51.834;4.706;2023-05-01T12:16:15;17.58;;;11.02;;
25213;SDS011;13160;51.834;4.706;2023-05-01T12:18:44;14.20;;;10.32;;
25213;SDS011;13160;51.834;4.706;2023-05-01T12:21:16;15.18;;;11.10;;
25213;SDS011;13160;51.834;4.706;2023-05-01T12:23:48;13.15;;;10.43;;
25213;SDS011;13160;51.834;4.706;2023-05-01T12:26:17;14.55;;;10.77;;
25213;SDS011;13160;51.834;4.706;2023-05-01T12:28:56;16.40;;;10.57;;
25213;SDS011;13160;51.834;4.706;2023-05-01T12:31:28;14.65;;;10.38;;
25213;SDS011;13160;51.834;4.706;2023-05-01T12:33:57;14.25;;;10.93;;
25213;SDS011;13160;51.834;4.706;2023-05-01T12:36:28;17.05;;;9.90;;
25213;SDS011;13160;51.834;4.706;2023-05-01T12:39:00;12.52;;;9.13;;
25213;SDS011;13160;51.834;4.706;2023-05-01T12:41:31;13.57;;;9.77;;
25213;SDS011;13160;51.834;4.706;2023-05-01T12:44:02;15.10;;;10.02;;
25213;SDS011;13160;51.834;4.706;2023-05-01T12:46:54;14.65;;;9.30;;
25213;SDS011;13160;51.834;4.706;2023-05-01T12:49:26;14.63;;;8.98;;
25213;SDS011;13160;51.834;4.706;2023-05-01T12:51:58;13.82;;;8.88;;
25213;SDS011;13160;51.834;4.706;2023-05-01T12:54:30;14.23;;;8.73;;
25213;SDS011;13160;51.834;4.706;2023-05-01T12:57:06;13.05;;;8.00;;
25213;SDS011;13160;51.834;4.706;2023-05-01T12:59:37;10.27;;;7.80;;
25213;SDS011;13160;51.834;4.706;2023-05-01T13:02:08;10.00;;;7.35;;
25213;SDS011;13160;51.834;4.706;2023-05-01T13:04:40;12.27;;;7.30;;
25213;SDS011;13160;51.834;4.706;2023-05-01T13:07:10;12.18;;;7.10;;
25213;SDS011;13160;51.834;4.706;2023-05-01T13:09:50;10.02;;;7.20;;
25213;SDS011;13160;51.834;4.706;2023-05-01T13:12:20;10.65;;;7.15;;
25213;SDS011;13160;51.834;4.706;2023-05-01T13:14:49;9.25;;;6.68;;
25213;SDS011;13160;51.834;4.706;2023-05-01T13:17:21;8.77;;;7.10;;
25213;SDS011;13160;51.834;4.706;2023-05-01T13:19:52;9.63;;;6.60;;
25213;SDS011;13160;51.834;4.706;2023-05-01T13:22:28;9.35;;;6.70;;
25213;SDS011;13160;51.834;4.706;2023-05-01T13:25:00;9.32;;;6.78;;
25213;SDS011;13160;51.834;4.706;2023-05-01T13:27:29;10.73;;;7.85;;
25213;SDS011;13160;51.834;4.706;2023-05-01T13:29:58;14.65;;;7.95;;
25213;SDS011;13160;51.834;4.706;2023-05-01T13:32:28;9.90;;;7.68;;
25213;SDS011;13160;51.834;4.706;2023-05-01T13:34:58;9.77;;;7.85;;
25213;SDS011;13160;51.834;4.706;2023-05-01T13:37:28;11.65;;;7.97;;
25213;SDS011;13160;51.834;4.706;2023-05-01T13:39:57;11.18;;;8.27;;
25213;SDS011;13160;51.834;4.706;2023-05-01T13:42:27;10.45;;;8.13;;
25213;SDS011;13160;51.834;4.706;2023-05-01T13:44:56;14.13;;;9.65;;
25213;SDS011;13160;51.834;4.706;2023-05-01T13:47:25;11.52;;;8.27;;
25213;SDS011;13160;51.834;4.706;2023-05-01T13:49:54;9.65;;;7.53;;
25213;SDS011;13160;51.834;4.706;2023-05-01T13:52:23;11.95;;;7.70;;
25213;SDS011;13160;51.834;4.706;2023-05-01T13:54:52;13.32;;;7.65;;
25213;SDS011;13160;51.834;4.706;2023-05-01T13:57:35;12.68;;;7.43;;
25213;SDS011;13160;51.834;4.706;2023-05-01T14:00:06;10.93;;;8.02;;
25213;SDS011;13160;51.834;4.706;2023-05-01T14:02:41;10.77;;;8.40;;
25213;SDS011;13160;51.834;4.706;2023-05-01T14:05:14;11.80;;;8.52;;
25213;SDS011;13160;51.834;4.706;2023-05-01T14:07:43;13.02;;;10.13;;
25213;SDS011;13160;51.834;4.706;2023-05-01T14:10:20;12.90;;;9.18;;
25213;SDS011;13160;51.834;4.706;2023-05-01T14:12:52;11.57;;;9.07;;
25213;SDS011;13160;51.834;4.706;2023-05-01T14:15:23;11.20;;;8.75;;
25213;SDS011;13160;51.834;4.706;2023-05-01T14:17:51;15.55;;;9.48;;
25213;SDS011;13160;51.834;4.706;2023-05-01T14:20:20;12.57;;;9.32;;
25213;SDS011;13160;51.834;4.706;2023-05-01T14:22:52;13.73;;;8.55;;
25213;SDS011;13160;51.834;4.706;2023-05-01T14:25:21;11.02;;;9.00;;
25213;SDS011;13160;51.834;4.706;2023-05-01T14:27:53;13.80;;;8.70;;
25213;SDS011;13160;51.834;4.706;2023-05-01T14:30:24;10.38;;;8.07;;
25213;SDS011;13160;51.834;4.706;2023-05-01T14:33:00;13.30;;;8.45;;
25213;SDS011;13160;51.834;4.706;2023-05-01T14:35:29;12.23;;;8.43;;
25213;SDS011;13160;51.834;4.706;2023-05-01T14:37:58;15.05;;;8.63;;
25213;SDS011;13160;51.834;4.706;2023-05-01T14:40:38;16.38;;;9.05;;
25213;SDS011;13160;51.834;4.706;2023-05-01T14:43:11;14.93;;;8.10;;
25213;SDS011;13160;51.834;4.706;2023-05-01T14:45:44;11.43;;;8.65;;
25213;SDS011;13160;51.834;4.706;2023-05-01T14:48:18;11.52;;;8.35;;
25213;SDS011;13160;51.834;4.706;2023-05-01T14:50:49;11.13;;;7.80;;
25213;SDS011;13160;51.834;4.706;2023-05-01T14:53:17;14.90;;;9.38;;
25213;SDS011;13160;51.834;4.706;2023-05-01T14:55:46;10.68;;;8.35;;
25213;SDS011;13160;51.834;4.706;2023-05-01T14:58:20;12.98;;;8.65;;
25213;SDS011;13160;51.834;4.706;2023-05-01T15:00:49;12.70;;;8.48;;
25213;SDS011;13160;51.834;4.706;2023-05-01T15:03:17;11.88;;;8.63;;
25213;SDS011;13160;51.834;4.706;2023-05-01T15:05:45;11.52;;;8.32;;
25213;SDS011;13160;51.834;4.706;2023-05-01T15:08:17;12.65;;;8.68;;
25213;SDS011;13160;51.834;4.706;2023-05-01T15:10:45;12.95;;;8.68;;